createdAt,value
2019-05-06T09:20:20.795Z,12.5
2019-05-06T16:08:12.664Z,12.3
2019-05-06T16:46:42.717Z,12
2019-05-06T16:50:43.875Z,11.2
2019-05-06T16:51:35.706Z,12
2019-05-06T16:55:55.400Z,11.3
2019-05-06T16:58:02.368Z,11.3
2019-05-06T16:58:32.155Z,11.3
2019-05-06T17:00:58.522Z,11.3
2019-05-06T17:06:03.526Z,11.2
2019-05-06T17:11:08.590Z,11.2
2019-05-06T17:16:13.908Z,11.3
2019-05-06T17:21:23.505Z,11.4
2019-05-06T17:26:33.899Z,11.4
2019-05-06T17:31:38.452Z,11.5
2019-05-06T17:36:43.540Z,11.5
2019-05-06T17:41:49.287Z,11.4
2019-05-06T17:51:48.574Z,11.3
2019-05-06T17:56:53.572Z,10.9
2019-05-06T18:01:58.616Z,10.6
2019-05-06T18:07:08.555Z,10.2
2019-05-06T18:12:18.599Z,10.1
2019-05-06T18:17:23.547Z,10.4
2019-05-06T18:22:28.590Z,10.4
2019-05-06T18:27:33.524Z,10.5
2019-05-06T18:32:38.588Z,10.3
2019-05-06T18:37:58.544Z,10
2019-05-06T18:43:13.630Z,10
2019-05-06T18:48:23.553Z,9.8
2019-05-06T18:53:33.576Z,9.8
2019-05-06T18:58:38.627Z,9.9
2019-05-06T19:03:43.728Z,9.7
2019-05-06T19:08:48.520Z,9.7
2019-05-06T19:13:53.587Z,9.8
2019-05-06T19:19:05.769Z,9.6
2019-05-06T19:24:13.772Z,9.6
2019-05-06T19:29:18.581Z,9.7
2019-05-06T19:34:23.754Z,9.5
2019-05-06T19:39:28.562Z,9.3
2019-05-06T19:44:33.498Z,9.2
2019-05-06T19:49:43.530Z,9.1
2019-05-06T19:54:53.464Z,9.1
2019-05-06T19:59:58.548Z,9.1
2019-05-06T20:05:03.491Z,9.1
2019-05-06T20:10:08.453Z,8.9
2019-05-06T20:15:13.550Z,9
2019-05-06T20:20:23.540Z,9
2019-05-06T20:25:36.678Z,9
2019-05-06T20:30:38.539Z,9
2019-05-06T20:35:43.583Z,9
2019-05-06T20:40:48.510Z,9
2019-05-06T20:45:53.531Z,8.9
2019-05-06T20:51:03.664Z,9
2019-05-06T20:56:13.466Z,9
2019-05-06T21:01:18.522Z,9
2019-05-06T21:06:23.472Z,8.9
2019-05-06T21:11:29.343Z,8.9
2019-05-06T21:21:28.601Z,8.8
2019-05-06T21:26:33.607Z,8.9
2019-05-06T21:31:38.627Z,8.9
2019-05-06T21:36:48.612Z,9.2
2019-05-06T21:46:54.107Z,8.8
2019-05-06T21:56:53.987Z,8.7
2019-05-06T22:01:59.049Z,8.6
2019-05-06T22:07:04.059Z,8.6
2019-05-06T22:12:14.031Z,8.6
2019-05-06T22:17:24.022Z,8.8
2019-05-06T22:22:29.044Z,8.6
2019-05-06T22:27:34.015Z,8.6
2019-05-06T22:32:39.023Z,8.6
2019-05-06T22:37:44.997Z,8.6
2019-05-06T22:42:48.984Z,8.6
2019-05-06T22:47:54.090Z,8.6
2019-05-06T22:52:59.061Z,8.6
2019-05-06T22:58:04.004Z,8.6
2019-05-06T23:03:09.032Z,8.5
2019-05-06T23:03:39.007Z,8.5
2019-05-06T23:08:14.228Z,8.6
2019-05-06T23:13:19.079Z,8.7
2019-05-06T23:18:24.348Z,8.7
2019-05-06T23:23:33.979Z,8.7
2019-05-06T23:28:43.987Z,8.8
2019-05-06T23:33:48.991Z,8.8
2019-05-06T23:38:53.988Z,8.7
2019-05-06T23:43:59.044Z,8.6
2019-05-06T23:49:03.965Z,8.6
2019-05-06T23:54:13.992Z,8.8
2019-05-06T23:59:24.001Z,8.8
